A- A+ FrançaisEnglishEspañol中国

Services sur Internet Soldes sur Internet Des idées de cadeaux Météo Météo aéro

La météo à : Autours de vous Montargis-VimoryTarbes-Lourdes-PyrénéesPau-PyrénéesPersan-Beaumont

manche à air

La météo aéronautique pour les pilotes, la préparation du vol avec les METAR (METeorological Aerodrome Report, message d'observation des conditions météorologiques pour l'aviation) et Les TAF (Terminal Aerodrome Forecast : message de prévision à court terme des conditions météorologiques pour l'aviation). Et les autres ressources comme les VAC (Visual Approch Chart) et les NOTAM (Notice To Airman) pour préprer les vols.

Aéroport La Ronge (Canada) / OACI CYVC/ IATA YVC

L'altitude de l'aéroport La Ronge est de 379 m = 1243 ft. Il est situé à proximité de La Ronge (Canada). La météo générale à 5 jours est disponible pour La Ronge situé à 5.9 km.

METAR de l'aéroport La Ronge - CYVC

CYVC 291000Z 27003KT 15SM FEW065 M05/M06 A3046 RMK SC2 SLP341

Décodage du METAR de l'aéroport La Ronge (CA)

METAR émis par CYVC le dimanche 29 septembre 2019 à 10:00 heure TU, il y a 14 minutes.

La visibilité est de 24.1 km = 15 sm.

La température est de -5°C = 23 °F et le point rosée est de -6°C = 21 °F . Ce qui correspond à 93% d'humidité relative.

Le QNH est de 1031 hPa = 30.45 inHg

Vent de 3 kt = 6 km/h, orienté à 270°.

Nuages : Quelques nuages à 6500 ft = 1980 mètres.

RMK SC2 SLP341

TAF de l'aéroport La Ronge - CYVC

CYVC 150807Z 1508/1519 32008KT P6SM SCT012 OVC025 TEMPO 1508/1516 6SM -SHSN BKN012 BECMG 1516/1518 VRB03KT RMK NXT FCST BY 151300Z

CYVC 150807Z 1508/1519 32008KT P6SM nuages épars à 012 couverture nuageuse soudée à 025 temporairement 1508/1516 6SM faible SHSN couverture nuageuse fragmentée à 012 devenant 1516/1518 VRB03KT remarques NXT trombe ST BY 151300Z

Aéroport à proximité de La Ronge

Météo générale à 5 jours à La Ronge (5.9 km)Aéroport Pinehouse Lake (93 km)Aéroport Buffalo Narrows (213 km)Aéroport Prince Albert (217 km)Aéroport Nipawin (218 km)Aéroport Flin Flon (235 km)Aéroport Key Lake (235 km)

Vue aérienne de l'aéroport La Ronge

NOTAM de l'aéroport La Ronge

Les NOTAM sont fournis sans aucune garantie de leur actualité. Le pilote est le seul responsable de la vérification de sa validité avant de l'utiliser opérationnellement pour préparer un vol ou l'utiliser lors de sa navigation.

NOTAM Non-directional radio beacon (du jeudi 10 octobre 2019 à 09:01 au samedi 14 décembre 2019 à 23:59)

M0012/19 NOTAMN
Q) CZWG/QNBXX/IV/BO/AE/000/999/5505N10519W025
A) CYVC B) 1910100901 C) 1912132359
E) LA RONGE NDB VC 317KHZ UNMONITORED
CREATED: 10 Oct 2019 00:38:00
SOURCE: CYHQYNYX

Sources des données